createdAt,value
2023-04-27T00:04:51.854Z,3.00
2023-04-27T00:09:54.872Z,6.32
2023-04-27T00:14:57.720Z,8.39
2023-04-27T00:20:00.694Z,5.84
2023-04-27T00:25:03.730Z,4.10
2023-04-27T00:30:08.141Z,3.10
2023-04-27T00:35:11.602Z,5.07
2023-04-27T00:40:14.480Z,6.19
2023-04-27T00:45:17.347Z,4.16
2023-04-27T00:50:30.205Z,3.25
2023-04-27T00:55:33.027Z,5.82
2023-04-27T01:00:40.351Z,4.62
2023-04-27T01:05:43.614Z,3.45
2023-04-27T01:10:46.985Z,6.02
2023-04-27T01:15:49.925Z,5.31
2023-04-27T01:20:53.444Z,3.72
2023-04-27T01:25:56.661Z,4.51
2023-04-27T01:30:59.537Z,6.70
2023-04-27T01:36:02.876Z,4.71
2023-04-27T01:41:08.978Z,3.45
2023-04-27T01:46:14.334Z,5.38
2023-04-27T01:51:17.256Z,4.26
2023-04-27T01:56:20.067Z,4.88
2023-04-27T02:01:23.107Z,5.98
2023-04-27T02:06:26.019Z,4.05
2023-04-27T02:11:28.813Z,4.74
2023-04-27T02:16:31.689Z,6.40
2023-04-27T02:21:34.759Z,4.36
2023-04-27T02:26:37.531Z,3.87
2023-04-27T02:31:40.566Z,6.97
2023-04-27T02:36:43.508Z,5.42
2023-04-27T02:41:46.315Z,3.93
2023-04-27T02:46:50.933Z,6.85
2023-04-27T02:51:53.785Z,8.50
2023-04-27T02:56:56.855Z,5.75
2023-04-27T03:01:59.654Z,4.07
2023-04-27T03:07:04.252Z,3.92
2023-04-27T03:12:07.103Z,6.01
2023-04-27T03:17:10.348Z,4.15
2023-04-27T03:22:13.160Z,5.48
2023-04-27T03:27:16.009Z,5.97
2023-04-27T03:32:19.019Z,4.09
2023-04-27T03:37:22.247Z,4.87
2023-04-27T03:42:25.241Z,7.38
2023-04-27T03:47:28.059Z,5.45
2023-04-27T03:52:30.961Z,5.25
2023-04-27T03:57:33.789Z,9.09
2023-04-27T04:02:36.710Z,7.80
2023-04-27T04:07:41.475Z,5.76
2023-04-27T04:12:44.408Z,5.35
2023-04-27T04:17:47.734Z,8.95
2023-04-27T04:22:50.700Z,8.07
2023-04-27T04:27:53.565Z,6.03
2023-04-27T04:32:56.434Z,7.44
2023-04-27T04:38:00.871Z,8.85
2023-04-27T04:43:04.642Z,7.18
2023-04-27T04:48:08.758Z,6.22
2023-04-27T04:53:11.731Z,8.42
2023-04-27T04:58:14.726Z,11.27
2023-04-27T05:03:18.890Z,9.86
2023-04-27T05:08:22.034Z,9.13
2023-04-27T05:13:25.078Z,9.80
2023-04-27T05:18:27.848Z,11.03
2023-04-27T05:23:31.135Z,12.56
2023-04-27T05:28:34.030Z,13.97
2023-04-27T05:33:37.089Z,14.48
2023-04-27T05:38:40.500Z,13.62
2023-04-27T05:43:43.629Z,13.18
2023-04-27T05:48:46.981Z,13.89
2023-04-27T05:53:49.906Z,15.27
2023-04-27T05:58:53.113Z,16.40
2023-04-27T06:03:56.143Z,17.13
2023-04-27T06:08:59.687Z,17.83
2023-04-27T06:14:03.138Z,18.66
2023-04-27T06:19:09.604Z,19.38
2023-04-27T06:26:17.189Z,20.43
2023-04-27T06:31:20.335Z,21.12
2023-04-27T06:36:28.210Z,21.40
2023-04-27T06:41:31.042Z,22.14
2023-04-27T06:46:34.131Z,22.58
